createdAt,value
2022-07-30T00:00:32.470Z,89.36
2022-07-30T00:03:09.614Z,89.26
2022-07-30T00:05:38.442Z,89.23
2022-07-30T00:08:07.256Z,89.44
2022-07-30T00:10:45.128Z,89.35
2022-07-30T00:13:15.005Z,89.32
2022-07-30T00:15:44.229Z,89.41
2022-07-30T00:18:13.310Z,89.28
2022-07-30T00:20:44.258Z,89.38
2022-07-30T00:23:13.309Z,89.35
2022-07-30T00:25:44.342Z,89.27
2022-07-30T00:28:13.146Z,89.46
2022-07-30T00:30:41.942Z,89.32
2022-07-30T00:33:11.257Z,89.21
2022-07-30T00:35:40.880Z,89.04
2022-07-30T00:38:09.597Z,89.37
2022-07-30T00:40:40.187Z,89.33
2022-07-30T00:43:13.757Z,89.38
2022-07-30T00:45:43.151Z,89.43
2022-07-30T00:48:14.419Z,89.51
2022-07-30T00:50:43.464Z,89.41
2022-07-30T00:53:14.680Z,89.24
2022-07-30T00:55:43.794Z,89.44
2022-07-30T00:58:12.950Z,89.60
2022-07-30T01:00:47.486Z,89.86
2022-07-30T01:03:16.365Z,89.93
2022-07-30T01:05:45.404Z,90.04
2022-07-30T01:08:14.460Z,90.13
2022-07-30T01:10:43.889Z,90.24
2022-07-30T01:13:13.567Z,90.21
2022-07-30T01:15:42.445Z,90.27
2022-07-30T01:18:14.293Z,90.45
2022-07-30T01:20:50.010Z,90.46
2022-07-30T01:23:26.013Z,90.70
2022-07-30T01:26:00.699Z,90.52
2022-07-30T01:28:35.318Z,90.58
2022-07-30T01:31:05.765Z,90.71
2022-07-30T01:33:39.074Z,90.71
2022-07-30T01:36:10.518Z,90.79
2022-07-30T01:38:41.521Z,90.81
2022-07-30T01:41:11.082Z,90.89
2022-07-30T01:43:41.495Z,90.93
2022-07-30T01:46:12.068Z,91.08
2022-07-30T01:48:40.955Z,90.97
2022-07-30T01:51:13.918Z,90.88
2022-07-30T01:53:50.446Z,90.54
2022-07-30T01:56:25.100Z,90.67
2022-07-30T01:58:58.654Z,90.72
2022-07-30T02:01:29.136Z,90.73
2022-07-30T02:04:04.531Z,91.07
2022-07-30T02:06:40.536Z,91.03
2022-07-30T02:09:15.038Z,90.98
2022-07-30T02:12:07.884Z,91.24
2022-07-30T02:14:45.466Z,91.18
2022-07-30T02:17:22.888Z,91.13
2022-07-30T02:20:00.647Z,91.20
2022-07-30T02:22:36.756Z,91.47
2022-07-30T02:25:09.968Z,91.68
2022-07-30T02:27:43.259Z,91.35
2022-07-30T02:30:15.220Z,91.36
2022-07-30T02:32:47.119Z,91.52
2022-07-30T02:35:20.090Z,91.72
2022-07-30T02:37:53.121Z,91.75
2022-07-30T02:40:23.285Z,91.69
2022-07-30T02:42:56.662Z,91.68
2022-07-30T02:45:29.215Z,91.95
2022-07-30T02:48:01.087Z,91.82
2022-07-30T02:50:30.704Z,91.85
2022-07-30T02:53:02.783Z,91.61
2022-07-30T02:55:34.964Z,91.51
2022-07-30T02:58:06.594Z,91.77
2022-07-30T03:00:38.636Z,91.82
2022-07-30T03:03:08.720Z,91.87
2022-07-30T03:05:41.210Z,91.86
2022-07-30T03:08:11.280Z,91.87
2022-07-30T03:10:43.921Z,91.86
2022-07-30T03:13:14.629Z,91.82
2022-07-30T03:15:48.302Z,91.83
2022-07-30T03:18:20.280Z,91.81
2022-07-30T03:20:53.534Z,91.75
2022-07-30T03:23:24.070Z,91.59
2022-07-30T03:25:57.986Z,91.45
2022-07-30T03:28:28.103Z,91.68
2022-07-30T03:30:57.203Z,91.58
2022-07-30T03:33:38.150Z,91.60
2022-07-30T03:36:12.630Z,91.52
2022-07-30T03:38:43.767Z,91.52
2022-07-30T03:41:13.704Z,91.52
2022-07-30T03:43:43.871Z,91.59
2022-07-30T03:46:13.428Z,91.57
2022-07-30T03:48:46.118Z,91.29
2022-07-30T03:51:16.405Z,91.14
2022-07-30T03:53:47.091Z,91.39
2022-07-30T03:56:48.565Z,91.29
2022-07-30T03:59:35.017Z,91.53
2022-07-30T04:02:06.928Z,91.40
2022-07-30T04:05:02.520Z,91.72
2022-07-30T04:07:31.537Z,91.36
2022-07-30T04:10:00.359Z,90.95
2022-07-30T04:12:39.326Z,91.12
2022-07-30T04:16:38.873Z,91.02
2022-07-30T04:18:04.392Z,90.92
2022-07-30T04:20:42.487Z,90.97
2022-07-30T04:23:12.369Z,90.84
2022-07-30T04:25:43.466Z,90.69
2022-07-30T04:28:13.775Z,90.90
2022-07-30T04:30:42.691Z,90.80
2022-07-30T04:33:11.624Z,90.63
2022-07-30T04:35:51.002Z,90.54
2022-07-30T04:38:34.887Z,90.42
2022-07-30T04:41:03.805Z,90.90
2022-07-30T04:43:41.668Z,91.21
2022-07-30T04:46:10.782Z,91.21
2022-07-30T04:48:40.050Z,91.09
2022-07-30T04:51:18.709Z,91.23
2022-07-30T04:53:48.896Z,90.74
2022-07-30T04:56:20.645Z,90.58
2022-07-30T04:58:52.983Z,90.42
2022-07-30T05:01:34.026Z,90.97
2022-07-30T05:04:12.103Z,90.99
2022-07-30T05:06:41.702Z,90.76
2022-07-30T05:09:11.798Z,91.06
2022-07-30T05:11:40.626Z,90.54
2022-07-30T05:14:09.618Z,90.37
2022-07-30T05:16:39.049Z,90.29
2022-07-30T05:19:08.771Z,90.29
2022-07-30T05:21:38.199Z,90.31
2022-07-30T05:24:08.092Z,89.95
2022-07-30T05:26:40.264Z,90.19
2022-07-30T05:29:18.057Z,90.14
2022-07-30T05:31:53.125Z,89.77
2022-07-30T05:34:22.375Z,90.01
2022-07-30T05:36:54.500Z,89.49
2022-07-30T05:39:24.360Z,89.13
2022-07-30T05:42:31.554Z,89.20
2022-07-30T05:45:01.213Z,88.95
2022-07-30T05:47:30.118Z,88.89
2022-07-30T05:50:04.221Z,88.61
2022-07-30T05:52:34.269Z,88.58
2022-07-30T05:55:10.933Z,88.70
2022-07-30T05:58:02.861Z,88.26
2022-07-30T06:00:34.917Z,87.52
2022-07-30T06:03:04.310Z,87.85
2022-07-30T06:06:02.360Z,87.94
2022-07-30T06:08:31.342Z,87.85
2022-07-30T06:11:00.680Z,87.54
2022-07-30T06:13:30.211Z,87.21
2022-07-30T06:16:00.390Z,87.13
2022-07-30T06:18:29.308Z,86.98
2022-07-30T06:20:59.224Z,86.56
2022-07-30T06:23:34.695Z,86.52
2022-07-30T06:26:26.556Z,87.08
2022-07-30T06:28:55.312Z,86.51
2022-07-30T06:31:32.682Z,86.46
2022-07-30T06:34:02.071Z,86.56
2022-07-30T06:36:34.853Z,86.14
2022-07-30T06:39:07.381Z,86.12
2022-07-30T06:41:54.809Z,85.95
2022-07-30T06:44:23.608Z,85.91
2022-07-30T06:47:11.900Z,85.20
2022-07-30T06:49:41.159Z,85.68
2022-07-30T06:52:16.964Z,85.51
2022-07-30T06:54:50.509Z,85.47
2022-07-30T06:57:28.698Z,85.41
2022-07-30T06:59:59.439Z,85.48
2022-07-30T07:02:38.784Z,85.55
2022-07-30T07:05:15.645Z,85.84
2022-07-30T07:07:58.179Z,85.29
2022-07-30T07:10:41.708Z,85.51
2022-07-30T07:13:24.413Z,85.22
2022-07-30T07:15:54.140Z,85.08
2022-07-30T07:18:24.762Z,84.86
2022-07-30T07:21:00.494Z,84.80
2022-07-30T07:23:39.768Z,84.71
2022-07-30T07:26:16.075Z,84.39
2022-07-30T07:28:45.030Z,84.55
2022-07-30T07:32:05.787Z,84.68
2022-07-30T07:34:06.002Z,84.45
2022-07-30T07:36:35.916Z,84.32
2022-07-30T07:39:09.319Z,84.39
2022-07-30T07:41:48.496Z,84.29
2022-07-30T07:44:20.931Z,84.12
2022-07-30T07:46:50.063Z,84.38
2022-07-30T07:49:18.915Z,84.17
2022-07-30T07:51:56.875Z,83.97
2022-07-30T07:54:25.940Z,83.98
2022-07-30T07:56:55.997Z,83.77
2022-07-30T07:59:40.155Z,83.34
2022-07-30T08:02:19.928Z,83.34
2022-07-30T08:05:12.055Z,82.29
2022-07-30T08:07:50.469Z,82.29
2022-07-30T08:10:38.121Z,82.11
2022-07-30T08:13:51.791Z,82.29
2022-07-30T08:16:25.733Z,81.40
2022-07-30T08:19:24.643Z,81.13
2022-07-30T08:22:16.316Z,81.17
2022-07-30T08:24:45.499Z,81.75
2022-07-30T08:27:14.497Z,81.10
2022-07-30T08:29:44.767Z,80.86
2022-07-30T08:32:13.615Z,80.62
2022-07-30T08:34:42.570Z,80.59
2022-07-30T08:37:11.461Z,79.95
2022-07-30T08:39:43.393Z,78.08
2022-07-30T08:42:14.403Z,77.66
2022-07-30T08:44:45.837Z,77.92
2022-07-30T08:47:18.978Z,77.28
2022-07-30T08:50:19.516Z,77.32
2022-07-30T09:43:49.168Z,72.81
2022-07-30T09:46:42.262Z,73.01
2022-07-30T09:49:29.908Z,72.51
2022-07-30T09:51:59.501Z,72.92
2022-07-30T09:54:51.092Z,72.61
2022-07-30T09:57:27.546Z,72.28
2022-07-30T10:00:23.680Z,71.62
2022-07-30T10:03:21.579Z,72.16
2022-07-30T10:06:34.179Z,72.03
2022-07-30T10:09:14.311Z,71.17
2022-07-30T10:11:48.369Z,71.15
2022-07-30T10:14:30.890Z,70.60
2022-07-30T10:17:05.512Z,70.86
2022-07-30T10:19:40.203Z,70.70
2022-07-30T10:22:30.009Z,69.65
2022-07-30T10:25:20.743Z,69.36
2022-07-30T10:28:11.587Z,69.83
2022-07-30T10:30:41.742Z,69.01
2022-07-30T10:33:35.021Z,68.59
2022-07-30T10:36:08.827Z,68.24
2022-07-30T10:38:41.853Z,67.99
2022-07-30T10:41:44.389Z,68.30
2022-07-30T10:44:41.569Z,66.98
2022-07-30T10:47:14.305Z,66.01
2022-07-30T10:50:07.389Z,65.77
2022-07-30T10:52:49.999Z,65.45
2022-07-30T10:55:37.128Z,65.16
2022-07-30T10:58:10.475Z,65.51
2022-07-30T11:00:59.659Z,65.88
2022-07-30T11:03:41.217Z,65.78
2022-07-30T11:06:27.944Z,65.32
2022-07-30T11:08:57.257Z,65.76
2022-07-30T11:12:02.058Z,66.20
2022-07-30T11:15:06.804Z,65.87
2022-07-30T11:18:02.608Z,65.69
2022-07-30T11:20:35.046Z,65.65
2022-07-30T11:23:14.225Z,65.25
2022-07-30T11:25:51.485Z,65.46
2022-07-30T11:28:39.383Z,64.24
2022-07-30T11:31:37.007Z,64.76
2022-07-30T11:34:31.904Z,65.54
2022-07-30T11:37:18.796Z,65.93
2022-07-30T11:40:14.147Z,66.06
2022-07-30T11:42:44.324Z,66.11
2022-07-30T11:45:32.149Z,66.40
2022-07-30T11:48:01.370Z,66.69
2022-07-30T11:50:32.867Z,66.84
2022-07-30T11:53:03.192Z,67.15
2022-07-30T11:55:34.492Z,67.33
2022-07-30T11:58:05.609Z,67.31
2022-07-30T12:00:39.998Z,67.68
2022-07-30T12:03:10.850Z,68.19
2022-07-30T12:05:40.264Z,68.17
2022-07-30T12:08:35.271Z,68.48
2022-07-30T12:11:00.589Z,69.00
2022-07-30T12:13:43.470Z,69.35
2022-07-30T12:16:16.413Z,69.48
2022-07-30T12:18:46.871Z,69.32
2022-07-30T12:21:15.648Z,69.37
2022-07-30T12:23:53.365Z,69.73
2022-07-30T12:26:26.689Z,69.85
2022-07-30T12:28:57.744Z,69.95
2022-07-30T12:31:27.046Z,69.95
2022-07-30T12:33:56.136Z,70.39
2022-07-30T12:36:30.162Z,70.63
2022-07-30T12:39:02.082Z,70.79
2022-07-30T12:41:45.578Z,70.95
2022-07-30T12:44:35.014Z,71.27
2022-07-30T12:47:05.093Z,72.05
2022-07-30T12:49:37.780Z,72.47
2022-07-30T12:52:27.675Z,73.02
2022-07-30T12:55:02.227Z,73.76
2022-07-30T12:57:57.915Z,74.52
2022-07-30T13:00:29.803Z,75.21
2022-07-30T13:02:59.469Z,75.33
2022-07-30T13:05:51.323Z,76.04
2022-07-30T13:08:56.284Z,76.54
2022-07-30T13:11:37.209Z,76.79
2022-07-30T13:14:06.515Z,77.17
2022-07-30T13:16:36.546Z,77.57
2022-07-30T13:19:06.632Z,78.06
2022-07-30T13:21:35.736Z,78.54
2022-07-30T13:24:05.777Z,78.89
2022-07-30T13:26:39.269Z,79.43
2022-07-30T13:29:08.824Z,80.00
2022-07-30T13:31:42.767Z,80.33
2022-07-30T13:34:12.642Z,80.91
2022-07-30T13:36:42.463Z,81.17
2022-07-30T13:39:11.937Z,81.30
2022-07-30T13:41:41.441Z,81.70
2022-07-30T13:44:10.332Z,82.71
2022-07-30T13:46:41.298Z,82.70
2022-07-30T13:49:10.643Z,83.01
2022-07-30T13:51:39.752Z,83.32
2022-07-30T13:54:08.530Z,83.40
2022-07-30T13:56:41.345Z,83.73
2022-07-30T13:59:10.071Z,84.31
2022-07-30T14:01:38.937Z,84.38
2022-07-30T14:04:08.010Z,84.70
2022-07-30T14:06:37.186Z,84.64
2022-07-30T14:09:05.973Z,85.00
2022-07-30T14:11:35.405Z,84.75
2022-07-30T14:14:04.294Z,85.18
2022-07-30T14:16:45.115Z,85.43
2022-07-30T14:19:22.959Z,85.81
2022-07-30T14:21:53.821Z,86.49
2022-07-30T14:24:23.340Z,86.36
2022-07-30T14:26:57.797Z,86.41
2022-07-30T14:29:28.362Z,87.02
2022-07-30T14:31:57.582Z,87.09
2022-07-30T14:34:26.313Z,87.24
2022-07-30T14:36:55.340Z,87.39
2022-07-30T14:39:24.427Z,87.61
2022-07-30T14:41:55.503Z,87.90
2022-07-30T14:44:25.007Z,88.17
2022-07-30T14:46:53.874Z,88.37
2022-07-30T14:49:24.055Z,88.66
2022-07-30T14:51:52.311Z,88.44
2022-07-30T14:54:21.812Z,89.09
2022-07-30T14:56:56.157Z,88.93
2022-07-30T14:59:27.301Z,89.23
2022-07-30T15:01:56.862Z,89.52
2022-07-30T15:04:25.850Z,89.80
2022-07-30T15:06:54.640Z,90.02
2022-07-30T15:09:26.277Z,90.17
2022-07-30T15:12:10.458Z,90.24
2022-07-30T15:14:41.116Z,90.27
2022-07-30T15:17:09.962Z,90.45
2022-07-30T15:19:49.428Z,90.56
2022-07-30T15:22:19.915Z,90.78
2022-07-30T15:24:49.109Z,90.78
2022-07-30T15:27:17.816Z,91.03
2022-07-30T15:29:46.789Z,90.98
2022-07-30T15:32:16.515Z,91.08
2022-07-30T15:34:46.399Z,91.22
2022-07-30T15:37:15.317Z,91.44
2022-07-30T15:39:44.159Z,91.74
2022-07-30T15:42:15.316Z,92.01
2022-07-30T15:44:48.700Z,91.98
2022-07-30T15:47:18.120Z,91.91
2022-07-30T15:49:46.922Z,92.13
2022-07-30T15:52:15.667Z,92.16
2022-07-30T15:54:44.480Z,92.23
2022-07-30T15:57:13.362Z,92.39
2022-07-30T15:59:42.084Z,92.30
2022-07-30T16:02:11.006Z,92.49
2022-07-30T16:04:39.743Z,92.53
2022-07-30T16:07:10.017Z,92.46
2022-07-30T16:09:39.279Z,92.63
2022-07-30T16:12:08.273Z,92.74
2022-07-30T16:14:37.208Z,92.91
2022-07-30T16:17:09.381Z,93.00
2022-07-30T16:19:41.334Z,92.84
2022-07-30T16:22:15.594Z,92.87
2022-07-30T16:24:52.868Z,92.83
2022-07-30T16:27:21.815Z,92.76
2022-07-30T16:29:50.593Z,92.88
2022-07-30T16:32:19.488Z,92.76
2022-07-30T16:34:49.192Z,93.01
2022-07-30T16:37:18.590Z,93.15
2022-07-30T16:39:47.708Z,93.19
2022-07-30T16:42:16.586Z,93.03
2022-07-30T16:44:45.364Z,93.35
2022-07-30T16:47:14.206Z,93.49
2022-07-30T16:49:43.058Z,93.51
2022-07-30T16:52:11.888Z,93.57
2022-07-30T16:54:40.739Z,93.56
2022-07-30T16:57:10.583Z,93.53
2022-07-30T16:59:42.259Z,93.74
2022-07-30T17:02:12.878Z,93.75
2022-07-30T17:04:41.866Z,93.65
2022-07-30T17:07:10.760Z,93.74
2022-07-30T17:09:42.881Z,93.85
2022-07-30T17:12:19.832Z,93.87
2022-07-30T17:14:54.558Z,93.90
2022-07-30T17:17:23.421Z,94.22
2022-07-30T17:19:52.714Z,94.19
2022-07-30T17:22:21.730Z,94.66
2022-07-30T17:24:50.484Z,94.63
2022-07-30T17:27:22.261Z,94.80
2022-07-30T17:29:51.570Z,94.81
2022-07-30T17:32:21.659Z,94.97
2022-07-30T17:34:50.605Z,95.04
2022-07-30T17:37:19.586Z,95.16
2022-07-30T17:40:22.979Z,95.19
2022-07-30T17:42:43.209Z,95.13
2022-07-30T17:45:13.126Z,95.15
2022-07-30T17:47:43.096Z,94.90
2022-07-30T17:50:14.087Z,95.06
2022-07-30T17:52:43.728Z,95.09
2022-07-30T17:55:13.619Z,95.11
2022-07-30T17:57:42.503Z,95.26
2022-07-30T18:00:15.607Z,94.82
2022-07-30T18:02:44.660Z,94.97
2022-07-30T18:05:14.857Z,95.22
2022-07-30T18:07:44.791Z,95.20
2022-07-30T18:10:14.041Z,95.22
2022-07-30T18:12:48.856Z,95.22
2022-07-30T18:15:18.794Z,95.43
2022-07-30T18:17:47.798Z,95.57
2022-07-30T18:20:17.992Z,95.51
2022-07-30T18:22:46.437Z,95.64
2022-07-30T18:25:20.674Z,95.72
2022-07-30T18:27:52.332Z,95.40
2022-07-30T18:30:21.560Z,95.63
2022-07-30T18:32:50.668Z,95.59
2022-07-30T18:35:19.660Z,95.91
2022-07-30T18:37:48.945Z,95.67
2022-07-30T18:40:23.476Z,95.86
2022-07-30T18:42:55.023Z,95.81
2022-07-30T18:45:24.911Z,95.68
2022-07-30T18:47:54.673Z,95.71
2022-07-30T18:50:25.039Z,95.79
2022-07-30T18:52:55.901Z,95.97
2022-07-30T18:55:24.690Z,96.00
2022-07-30T18:57:53.749Z,96.07
2022-07-30T19:00:34.823Z,95.84
2022-07-30T19:03:11.193Z,96.21
2022-07-30T19:05:44.731Z,96.32
2022-07-30T19:08:15.077Z,96.40
2022-07-30T19:10:43.947Z,96.00
2022-07-30T19:13:13.157Z,96.53
2022-07-30T19:15:42.465Z,96.53
2022-07-30T19:18:11.803Z,96.48
2022-07-30T19:20:41.051Z,96.50
2022-07-30T19:23:11.549Z,96.63
2022-07-30T19:25:43.063Z,96.93
2022-07-30T19:28:14.764Z,96.85
2022-07-30T19:30:44.171Z,96.91
2022-07-30T19:33:15.494Z,97.02
2022-07-30T19:35:47.368Z,97.01
2022-07-30T19:38:23.770Z,96.76
2022-07-30T19:40:54.249Z,96.85
2022-07-30T19:43:23.900Z,96.62
2022-07-30T19:45:53.743Z,97.02
2022-07-30T19:48:32.381Z,97.21
2022-07-30T19:51:01.785Z,97.11
2022-07-30T19:53:33.994Z,97.13
2022-07-30T19:56:08.356Z,97.26
2022-07-30T19:58:40.230Z,97.06
2022-07-30T20:01:11.042Z,97.43
2022-07-30T20:03:40.523Z,97.57
2022-07-30T20:06:14.583Z,97.60
2022-07-30T20:08:44.873Z,97.42
2022-07-30T20:11:35.875Z,97.77
2022-07-30T20:14:05.807Z,97.59
2022-07-30T20:16:35.250Z,97.91
2022-07-30T20:19:04.459Z,97.74
2022-07-30T20:21:56.301Z,97.74
2022-07-30T20:24:23.103Z,97.93
2022-07-30T20:26:54.649Z,97.74
2022-07-30T20:29:25.099Z,97.88
2022-07-30T20:31:54.638Z,97.78
2022-07-30T20:34:23.906Z,97.81
2022-07-30T20:36:56.492Z,97.92
2022-07-30T20:39:27.551Z,98.20
2022-07-30T20:42:07.827Z,98.03
2022-07-30T20:44:38.508Z,98.10
2022-07-30T20:47:08.301Z,98.26
2022-07-30T20:49:38.646Z,98.16
2022-07-30T20:52:10.931Z,98.31
2022-07-30T20:54:45.043Z,98.52
2022-07-30T21:00:04.378Z,98.30
2022-07-30T21:02:37.132Z,98.52
2022-07-30T21:05:08.329Z,98.34
2022-07-30T21:07:42.939Z,98.50
2022-07-30T21:10:13.521Z,98.67
2022-07-30T21:12:44.751Z,98.67
2022-07-30T21:15:23.487Z,98.73
2022-07-30T21:17:54.054Z,98.78
2022-07-30T21:20:28.115Z,98.96
2022-07-30T21:23:02.190Z,98.93
2022-07-30T21:25:33.529Z,99.04
2022-07-30T21:28:03.263Z,98.92
2022-07-30T21:30:33.883Z,98.74
2022-07-30T21:33:03.769Z,98.83
2022-07-30T21:35:32.912Z,98.97
2022-07-30T21:38:04.808Z,98.82
2022-07-30T21:40:41.493Z,99.16
2022-07-30T21:43:12.398Z,99.04
2022-07-30T21:45:40.426Z,99.06
2022-07-30T21:48:12.262Z,99.38
2022-07-30T21:50:41.318Z,99.49
2022-07-30T21:53:10.168Z,99.68
2022-07-30T21:55:52.758Z,99.63
2022-07-30T21:58:25.124Z,99.76
2022-07-30T22:01:17.545Z,99.89
2022-07-30T22:04:04.538Z,99.73
2022-07-30T22:06:38.550Z,99.80
2022-07-30T22:09:19.640Z,99.91
2022-07-30T22:12:00.691Z,100.00
2022-07-30T22:14:31.518Z,100.00
2022-07-30T22:17:00.401Z,100.00
2022-07-30T22:19:29.683Z,100.00
2022-07-30T22:21:58.744Z,100.00
2022-07-30T22:24:33.253Z,100.00
2022-07-30T22:27:12.525Z,100.00
2022-07-30T22:29:47.375Z,100.00
2022-07-30T22:32:16.485Z,100.00
2022-07-30T22:34:45.621Z,100.00
2022-07-30T22:37:17.315Z,100.00
2022-07-30T22:39:48.664Z,100.00
2022-07-30T22:42:23.910Z,100.00
2022-07-30T22:44:54.896Z,100.00
2022-07-30T22:52:28.695Z,100.00
2022-07-30T22:55:04.639Z,100.00
2022-07-30T22:57:40.138Z,100.00
2022-07-30T23:00:12.775Z,100.00
2022-07-30T23:02:44.005Z,100.00
2022-07-30T23:05:15.470Z,100.00
2022-07-30T23:07:45.136Z,100.00
2022-07-30T23:10:20.606Z,100.00
2022-07-30T23:12:26.541Z,98.40
2022-07-30T23:12:53.487Z,100.00
2022-07-30T23:15:25.228Z,100.00
2022-07-30T23:17:54.452Z,100.00
2022-07-30T23:20:24.152Z,100.00
2022-07-30T23:22:53.325Z,100.00
2022-07-30T23:25:22.654Z,100.00
2022-07-30T23:27:51.672Z,100.00
2022-07-30T23:30:20.514Z,100.00
2022-07-30T23:32:49.378Z,100.00
2022-07-30T23:35:18.299Z,100.00
2022-07-30T23:37:48.021Z,100.00
2022-07-30T23:40:19.065Z,100.00
2022-07-30T23:42:50.302Z,100.00
2022-07-30T23:45:19.393Z,100.00
2022-07-30T23:48:01.875Z,100.00
2022-07-30T23:50:33.211Z,100.00
2022-07-30T23:53:03.056Z,100.00
2022-07-30T23:55:33.091Z,100.00
2022-07-30T23:58:01.920Z,100.00
